sensor_id;sensor_type;location;lat;lon;timestamp;P1;durP1;ratioP1;P2;durP2;ratioP2
13325;SDS011;6732;51.044;3.746;2023-03-23T00:02:12;1.65;;;1.48;;
13325;SDS011;6732;51.044;3.746;2023-03-23T00:04:38;2.30;;;2.10;;
13325;SDS011;6732;51.044;3.746;2023-03-23T00:07:05;4.32;;;2.08;;
13325;SDS011;6732;51.044;3.746;2023-03-23T00:09:31;2.45;;;2.00;;
13325;SDS011;6732;51.044;3.746;2023-03-23T00:12:00;2.17;;;1.90;;
13325;SDS011;6732;51.044;3.746;2023-03-23T00:14:33;2.30;;;1.88;;
13325;SDS011;6732;51.044;3.746;2023-03-23T00:17:08;3.55;;;2.25;;
13325;SDS011;6732;51.044;3.746;2023-03-23T00:19:38;3.13;;;2.13;;
13325;SDS011;6732;51.044;3.746;2023-03-23T00:22:14;2.30;;;2.10;;
13325;SDS011;6732;51.044;3.746;2023-03-23T00:24:41;2.05;;;1.95;;
13325;SDS011;6732;51.044;3.746;2023-03-23T00:27:08;2.30;;;2.10;;
13325;SDS011;6732;51.044;3.746;2023-03-23T00:29:38;3.38;;;2.45;;
13325;SDS011;6732;51.044;3.746;2023-03-23T00:32:06;3.53;;;1.92;;
13325;SDS011;6732;51.044;3.746;2023-03-23T00:34:38;3.50;;;2.45;;
13325;SDS011;6732;51.044;3.746;2023-03-23T00:37:05;2.40;;;2.20;;
13325;SDS011;6732;51.044;3.746;2023-03-23T00:39:32;2.92;;;2.63;;
13325;SDS011;6732;51.044;3.746;2023-03-23T00:42:02;2.85;;;2.40;;
13325;SDS011;6732;51.044;3.746;2023-03-23T00:44:29;3.50;;;2.58;;
13325;SDS011;6732;51.044;3.746;2023-03-23T00:46:55;3.65;;;2.30;;
13325;SDS011;6732;51.044;3.746;2023-03-23T00:49:23;2.83;;;1.90;;
13325;SDS011;6732;51.044;3.746;2023-03-23T00:51:51;2.92;;;2.15;;
13325;SDS011;6732;51.044;3.746;2023-03-23T00:54:18;2.63;;;2.00;;
13325;SDS011;6732;51.044;3.746;2023-03-23T00:56:45;5.03;;;2.03;;
13325;SDS011;6732;51.044;3.746;2023-03-23T00:59:11;2.45;;;2.00;;
13325;SDS011;6732;51.044;3.746;2023-03-23T01:01:38;2.03;;;1.70;;
13325;SDS011;6732;51.044;3.746;2023-03-23T01:04:05;2.80;;;2.20;;
13325;SDS011;6732;51.044;3.746;2023-03-23T01:06:32;3.88;;;1.73;;
13325;SDS011;6732;51.044;3.746;2023-03-23T01:09:00;3.77;;;1.90;;
13325;SDS011;6732;51.044;3.746;2023-03-23T01:11:27;2.83;;;1.90;;
13325;SDS011;6732;51.044;3.746;2023-03-23T01:13:54;2.90;;;1.73;;
13325;SDS011;6732;51.044;3.746;2023-03-23T01:16:21;2.83;;;1.88;;
13325;SDS011;6732;51.044;3.746;2023-03-23T01:18:47;2.42;;;1.80;;
13325;SDS011;6732;51.044;3.746;2023-03-23T01:21:15;2.15;;;1.95;;
13325;SDS011;6732;51.044;3.746;2023-03-23T01:23:42;2.67;;;1.85;;
13325;SDS011;6732;51.044;3.746;2023-03-23T01:26:12;2.30;;;1.70;;
13325;SDS011;6732;51.044;3.746;2023-03-23T01:28:39;2.47;;;1.70;;
13325;SDS011;6732;51.044;3.746;2023-03-23T01:31:08;2.40;;;1.88;;
13325;SDS011;6732;51.044;3.746;2023-03-23T01:33:37;4.28;;;1.98;;
13325;SDS011;6732;51.044;3.746;2023-03-23T01:36:04;2.25;;;1.60;;
13325;SDS011;6732;51.044;3.746;2023-03-23T01:38:31;1.63;;;1.50;;
13325;SDS011;6732;51.044;3.746;2023-03-23T01:40:58;1.85;;;1.40;;
13325;SDS011;6732;51.044;3.746;2023-03-23T01:43:24;2.50;;;2.03;;
13325;SDS011;6732;51.044;3.746;2023-03-23T01:45:51;1.67;;;1.50;;
13325;SDS011;6732;51.044;3.746;2023-03-23T01:53:13;2.97;;;1.70;;
13325;SDS011;6732;51.044;3.746;2023-03-23T01:55:40;1.55;;;1.20;;
13325;SDS011;6732;51.044;3.746;2023-03-23T01:58:07;3.63;;;1.40;;
13325;SDS011;6732;51.044;3.746;2023-03-23T02:00:34;3.00;;;1.52;;
13325;SDS011;6732;51.044;3.746;2023-03-23T02:03:02;2.80;;;1.40;;
13325;SDS011;6732;51.044;3.746;2023-03-23T02:05:32;2.55;;;1.40;;
13325;SDS011;6732;51.044;3.746;2023-03-23T02:08:00;2.58;;;1.20;;
13325;SDS011;6732;51.044;3.746;2023-03-23T02:10:29;2.10;;;1.33;;
13325;SDS011;6732;51.044;3.746;2023-03-23T02:12:56;2.28;;;1.20;;
13325;SDS011;6732;51.044;3.746;2023-03-23T02:15:24;2.38;;;1.38;;
13325;SDS011;6732;51.044;3.746;2023-03-23T02:17:55;2.25;;;1.10;;
13325;SDS011;6732;51.044;3.746;2023-03-23T02:25:43;7.72;;;1.40;;
13325;SDS011;6732;51.044;3.746;2023-03-23T02:30:47;4.18;;;1.20;;
13325;SDS011;6732;51.044;3.746;2023-03-23T02:36:19;4.53;;;1.70;;
13325;SDS011;6732;51.044;3.746;2023-03-23T02:41:18;4.35;;;1.65;;
13325;SDS011;6732;51.044;3.746;2023-03-23T02:43:45;5.45;;;1.50;;
13325;SDS011;6732;51.044;3.746;2023-03-23T02:46:12;5.15;;;1.27;;
13325;SDS011;6732;51.044;3.746;2023-03-23T02:48:40;3.95;;;1.27;;
13325;SDS011;6732;51.044;3.746;2023-03-23T02:51:07;4.20;;;1.33;;
13325;SDS011;6732;51.044;3.746;2023-03-23T02:53:36;3.70;;;1.58;;
13325;SDS011;6732;51.044;3.746;2023-03-23T02:56:03;4.93;;;1.40;;
13325;SDS011;6732;51.044;3.746;2023-03-23T02:58:30;7.15;;;1.50;;
13325;SDS011;6732;51.044;3.746;2023-03-23T03:00:56;5.07;;;2.13;;
13325;SDS011;6732;51.044;3.746;2023-03-23T03:03:26;6.45;;;1.65;;
13325;SDS011;6732;51.044;3.746;2023-03-23T03:08:24;3.38;;;1.20;;
13325;SDS011;6732;51.044;3.746;2023-03-23T03:13:36;4.85;;;1.40;;
13325;SDS011;6732;51.044;3.746;2023-03-23T03:16:07;4.53;;;1.58;;
13325;SDS011;6732;51.044;3.746;2023-03-23T03:18:39;1.48;;;1.13;;
13325;SDS011;6732;51.044;3.746;2023-03-23T03:21:08;3.03;;;1.52;;
13325;SDS011;6732;51.044;3.746;2023-03-23T03:23:38;4.65;;;1.17;;
13325;SDS011;6732;51.044;3.746;2023-03-23T03:26:07;3.08;;;1.33;;
13325;SDS011;6732;51.044;3.746;2023-03-23T03:28:36;3.30;;;1.42;;
13325;SDS011;6732;51.044;3.746;2023-03-23T03:31:02;2.65;;;1.20;;
13325;SDS011;6732;51.044;3.746;2023-03-23T03:33:30;4.00;;;1.20;;
13325;SDS011;6732;51.044;3.746;2023-03-23T03:36:00;2.25;;;1.27;;
13325;SDS011;6732;51.044;3.746;2023-03-23T03:38:27;4.28;;;1.60;;
13325;SDS011;6732;51.044;3.746;2023-03-23T03:40:54;4.15;;;1.25;;
13325;SDS011;6732;51.044;3.746;2023-03-23T03:43:21;2.45;;;1.40;;
13325;SDS011;6732;51.044;3.746;2023-03-23T03:45:47;3.45;;;1.38;;
13325;SDS011;6732;51.044;3.746;2023-03-23T03:48:13;3.47;;;1.50;;
13325;SDS011;6732;51.044;3.746;2023-03-23T03:50:40;3.00;;;1.00;;
13325;SDS011;6732;51.044;3.746;2023-03-23T03:53:07;3.17;;;1.40;;
13325;SDS011;6732;51.044;3.746;2023-03-23T03:55:33;4.93;;;1.45;;
13325;SDS011;6732;51.044;3.746;2023-03-23T03:58:00;2.92;;;1.20;;
13325;SDS011;6732;51.044;3.746;2023-03-23T04:00:28;3.60;;;1.30;;
13325;SDS011;6732;51.044;3.746;2023-03-23T04:02:54;2.28;;;1.17;;
13325;SDS011;6732;51.044;3.746;2023-03-23T04:05:21;3.15;;;1.20;;
13325;SDS011;6732;51.044;3.746;2023-03-23T04:07:48;2.30;;;1.37;;
13325;SDS011;6732;51.044;3.746;2023-03-23T04:10:17;2.65;;;1.33;;
13325;SDS011;6732;51.044;3.746;2023-03-23T04:12:45;6.68;;;1.50;;
13325;SDS011;6732;51.044;3.746;2023-03-23T04:15:11;4.65;;;2.15;;
13325;SDS011;6732;51.044;3.746;2023-03-23T04:17:37;5.93;;;1.55;;
13325;SDS011;6732;51.044;3.746;2023-03-23T04:20:06;4.90;;;1.42;;
13325;SDS011;6732;51.044;3.746;2023-03-23T04:22:38;4.00;;;1.50;;
13325;SDS011;6732;51.044;3.746;2023-03-23T04:25:09;6.30;;;1.60;;
13325;SDS011;6732;51.044;3.746;2023-03-23T04:27:37;5.05;;;1.40;;
13325;SDS011;6732;51.044;3.746;2023-03-23T04:30:04;4.70;;;1.80;;
13325;SDS011;6732;51.044;3.746;2023-03-23T04:32:31;4.22;;;1.58;;
13325;SDS011;6732;51.044;3.746;2023-03-23T04:34:57;6.53;;;1.52;;
13325;SDS011;6732;51.044;3.746;2023-03-23T04:37:25;7.07;;;1.80;;
13325;SDS011;6732;51.044;3.746;2023-03-23T04:39:55;6.38;;;1.35;;
13325;SDS011;6732;51.044;3.746;2023-03-23T04:42:42;5.03;;;1.67;;
13325;SDS011;6732;51.044;3.746;2023-03-23T04:45:13;4.55;;;1.75;;
13325;SDS011;6732;51.044;3.746;2023-03-23T04:47:40;5.40;;;1.48;;
13325;SDS011;6732;51.044;3.746;2023-03-23T04:50:08;4.85;;;1.88;;
13325;SDS011;6732;51.044;3.746;2023-03-23T04:52:36;8.18;;;1.80;;
13325;SDS011;6732;51.044;3.746;2023-03-23T04:55:10;7.32;;;1.63;;
13325;SDS011;6732;51.044;3.746;2023-03-23T04:57:37;6.45;;;2.05;;
13325;SDS011;6732;51.044;3.746;2023-03-23T05:00:04;5.72;;;1.65;;
13325;SDS011;6732;51.044;3.746;2023-03-23T05:02:35;4.50;;;1.67;;
13325;SDS011;6732;51.044;3.746;2023-03-23T05:05:02;3.13;;;1.58;;
13325;SDS011;6732;51.044;3.746;2023-03-23T05:07:28;5.55;;;1.52;;
13325;SDS011;6732;51.044;3.746;2023-03-23T05:09:54;7.00;;;1.98;;
13325;SDS011;6732;51.044;3.746;2023-03-23T05:12:21;4.82;;;1.63;;
13325;SDS011;6732;51.044;3.746;2023-03-23T05:14:47;7.28;;;1.90;;
13325;SDS011;6732;51.044;3.746;2023-03-23T05:17:14;5.85;;;1.65;;
13325;SDS011;6732;51.044;3.746;2023-03-23T05:19:42;7.13;;;1.80;;
13325;SDS011;6732;51.044;3.746;2023-03-23T05:22:15;4.38;;;1.30;;
13325;SDS011;6732;51.044;3.746;2023-03-23T05:24:42;5.77;;;1.53;;
13325;SDS011;6732;51.044;3.746;2023-03-23T05:27:11;4.43;;;1.50;;
13325;SDS011;6732;51.044;3.746;2023-03-23T05:29:38;6.57;;;2.00;;
13325;SDS011;6732;51.044;3.746;2023-03-23T05:32:06;6.80;;;1.73;;
13325;SDS011;6732;51.044;3.746;2023-03-23T05:34:33;6.28;;;2.17;;
13325;SDS011;6732;51.044;3.746;2023-03-23T05:37:00;6.97;;;1.55;;
13325;SDS011;6732;51.044;3.746;2023-03-23T05:39:28;8.02;;;2.50;;
13325;SDS011;6732;51.044;3.746;2023-03-23T05:41:55;4.78;;;2.55;;
13325;SDS011;6732;51.044;3.746;2023-03-23T05:44:21;7.07;;;2.95;;
13325;SDS011;6732;51.044;3.746;2023-03-23T05:46:47;3.05;;;1.33;;
13325;SDS011;6732;51.044;3.746;2023-03-23T05:49:15;3.22;;;1.73;;
13325;SDS011;6732;51.044;3.746;2023-03-23T05:51:44;4.53;;;2.33;;
13325;SDS011;6732;51.044;3.746;2023-03-23T05:54:11;5.70;;;2.00;;
13325;SDS011;6732;51.044;3.746;2023-03-23T05:56:37;5.85;;;1.98;;
13325;SDS011;6732;51.044;3.746;2023-03-23T05:59:04;4.07;;;1.50;;
13325;SDS011;6732;51.044;3.746;2023-03-23T06:01:30;2.40;;;1.58;;
13325;SDS011;6732;51.044;3.746;2023-03-23T06:03:57;4.88;;;1.70;;
13325;SDS011;6732;51.044;3.746;2023-03-23T06:06:26;6.70;;;1.50;;
13325;SDS011;6732;51.044;3.746;2023-03-23T06:08:53;4.53;;;1.58;;
13325;SDS011;6732;51.044;3.746;2023-03-23T06:11:20;6.20;;;1.98;;
13325;SDS011;6732;51.044;3.746;2023-03-23T06:13:46;3.35;;;1.05;;
13325;SDS011;6732;51.044;3.746;2023-03-23T06:16:13;3.87;;;1.47;;
13325;SDS011;6732;51.044;3.746;2023-03-23T06:18:40;5.20;;;1.48;;
13325;SDS011;6732;51.044;3.746;2023-03-23T06:21:08;6.72;;;1.60;;
13325;SDS011;6732;51.044;3.746;2023-03-23T06:23:34;4.30;;;1.63;;
13325;SDS011;6732;51.044;3.746;2023-03-23T06:26:02;4.18;;;1.38;;
13325;SDS011;6732;51.044;3.746;2023-03-23T06:28:28;5.10;;;2.47;;
13325;SDS011;6732;51.044;3.746;2023-03-23T06:30:58;2.80;;;1.55;;
13325;SDS011;6732;51.044;3.746;2023-03-23T06:33:24;6.37;;;1.70;;
13325;SDS011;6732;51.044;3.746;2023-03-23T06:35:50;4.20;;;1.50;;
13325;SDS011;6732;51.044;3.746;2023-03-23T06:38:17;4.57;;;1.70;;
13325;SDS011;6732;51.044;3.746;2023-03-23T06:40:43;5.15;;;1.85;;
13325;SDS011;6732;51.044;3.746;2023-03-23T06:43:12;4.67;;;1.80;;
13325;SDS011;6732;51.044;3.746;2023-03-23T06:45:39;5.67;;;2.20;;
13325;SDS011;6732;51.044;3.746;2023-03-23T06:48:06;3.47;;;1.70;;
13325;SDS011;6732;51.044;3.746;2023-03-23T06:50:32;5.35;;;1.48;;
13325;SDS011;6732;51.044;3.746;2023-03-23T06:52:59;5.53;;;1.60;;
13325;SDS011;6732;51.044;3.746;2023-03-23T06:55:26;2.93;;;1.40;;
13325;SDS011;6732;51.044;3.746;2023-03-23T06:57:52;3.67;;;1.40;;
13325;SDS011;6732;51.044;3.746;2023-03-23T07:00:19;4.78;;;1.63;;
13325;SDS011;6732;51.044;3.746;2023-03-23T07:02:45;2.00;;;1.42;;
13325;SDS011;6732;51.044;3.746;2023-03-23T07:05:12;4.57;;;1.73;;
13325;SDS011;6732;51.044;3.746;2023-03-23T07:07:40;5.47;;;1.73;;
13325;SDS011;6732;51.044;3.746;2023-03-23T07:10:07;1.83;;;1.20;;
13325;SDS011;6732;51.044;3.746;2023-03-23T07:12:34;3.63;;;1.37;;
13325;SDS011;6732;51.044;3.746;2023-03-23T07:15:02;4.23;;;1.63;;
13325;SDS011;6732;51.044;3.746;2023-03-23T07:17:28;6.20;;;1.60;;
13325;SDS011;6732;51.044;3.746;2023-03-23T07:19:54;5.80;;;1.53;;
13325;SDS011;6732;51.044;3.746;2023-03-23T07:22:21;6.53;;;1.57;;
13325;SDS011;6732;51.044;3.746;2023-03-23T07:24:47;6.30;;;1.70;;
13325;SDS011;6732;51.044;3.746;2023-03-23T07:27:14;4.68;;;1.58;;
13325;SDS011;6732;51.044;3.746;2023-03-23T07:29:40;8.60;;;1.90;;
13325;SDS011;6732;51.044;3.746;2023-03-23T07:32:06;2.80;;;1.53;;
13325;SDS011;6732;51.044;3.746;2023-03-23T07:34:35;5.57;;;1.57;;
13325;SDS011;6732;51.044;3.746;2023-03-23T07:37:02;4.00;;;1.77;;
13325;SDS011;6732;51.044;3.746;2023-03-23T07:39:29;4.37;;;1.73;;
13325;SDS011;6732;51.044;3.746;2023-03-23T07:41:55;3.13;;;1.77;;
13325;SDS011;6732;51.044;3.746;2023-03-23T07:44:22;3.72;;;2.00;;
13325;SDS011;6732;51.044;3.746;2023-03-23T07:46:48;5.87;;;1.97;;
13325;SDS011;6732;51.044;3.746;2023-03-23T07:49:15;3.83;;;1.70;;
13325;SDS011;6732;51.044;3.746;2023-03-23T07:51:41;4.27;;;1.73;;
13325;SDS011;6732;51.044;3.746;2023-03-23T07:54:07;4.40;;;2.00;;
13325;SDS011;6732;51.044;3.746;2023-03-23T07:56:34;8.10;;;2.90;;
13325;SDS011;6732;51.044;3.746;2023-03-23T07:59:00;6.15;;;2.10;;
13325;SDS011;6732;51.044;3.746;2023-03-23T08:01:28;4.90;;;1.83;;
13325;SDS011;6732;51.044;3.746;2023-03-23T08:03:54;3.90;;;1.70;;
13325;SDS011;6732;51.044;3.746;2023-03-23T08:06:22;5.77;;;1.60;;
13325;SDS011;6732;51.044;3.746;2023-03-23T08:08:49;6.40;;;1.77;;
13325;SDS011;6732;51.044;3.746;2023-03-23T08:11:16;3.85;;;1.48;;
13325;SDS011;6732;51.044;3.746;2023-03-23T08:13:42;3.70;;;1.77;;
13325;SDS011;6732;51.044;3.746;2023-03-23T08:16:09;6.82;;;1.80;;
13325;SDS011;6732;51.044;3.746;2023-03-23T08:18:36;6.32;;;1.67;;
13325;SDS011;6732;51.044;3.746;2023-03-23T08:21:03;3.10;;;1.30;;
13325;SDS011;6732;51.044;3.746;2023-03-23T08:23:30;4.60;;;1.80;;
13325;SDS011;6732;51.044;3.746;2023-03-23T08:25:56;4.43;;;1.90;;
13325;SDS011;6732;51.044;3.746;2023-03-23T08:28:23;6.25;;;1.67;;
13325;SDS011;6732;51.044;3.746;2023-03-23T08:30:49;4.47;;;1.55;;
13325;SDS011;6732;51.044;3.746;2023-03-23T08:33:16;4.80;;;2.00;;
13325;SDS011;6732;51.044;3.746;2023-03-23T08:35:42;4.85;;;1.90;;
13325;SDS011;6732;51.044;3.746;2023-03-23T08:38:12;2.90;;;1.50;;
13325;SDS011;6732;51.044;3.746;2023-03-23T08:40:38;3.45;;;1.60;;
13325;SDS011;6732;51.044;3.746;2023-03-23T08:43:06;5.10;;;1.88;;
13325;SDS011;6732;51.044;3.746;2023-03-23T08:45:32;3.72;;;1.40;;
13325;SDS011;6732;51.044;3.746;2023-03-23T08:47:58;7.60;;;2.28;;
13325;SDS011;6732;51.044;3.746;2023-03-23T08:50:26;5.65;;;2.15;;
13325;SDS011;6732;51.044;3.746;2023-03-23T08:52:52;5.20;;;1.48;;
13325;SDS011;6732;51.044;3.746;2023-03-23T08:55:20;5.20;;;1.70;;
13325;SDS011;6732;51.044;3.746;2023-03-23T08:57:47;6.45;;;1.38;;
13325;SDS011;6732;51.044;3.746;2023-03-23T09:00:14;5.10;;;1.40;;
13325;SDS011;6732;51.044;3.746;2023-03-23T09:02:52;4.35;;;1.70;;
13325;SDS011;6732;51.044;3.746;2023-03-23T09:05:20;5.20;;;1.70;;
13325;SDS011;6732;51.044;3.746;2023-03-23T09:07:49;6.88;;;1.80;;
13325;SDS011;6732;51.044;3.746;2023-03-23T09:10:15;6.25;;;1.73;;
13325;SDS011;6732;51.044;3.746;2023-03-23T09:12:42;4.40;;;1.50;;
13325;SDS011;6732;51.044;3.746;2023-03-23T09:15:10;9.30;;;1.80;;
13325;SDS011;6732;51.044;3.746;2023-03-23T09:17:38;5.15;;;1.48;;
13325;SDS011;6732;51.044;3.746;2023-03-23T09:20:05;3.42;;;1.65;;
13325;SDS011;6732;51.044;3.746;2023-03-23T09:22:36;4.95;;;2.00;;
13325;SDS011;6732;51.044;3.746;2023-03-23T09:25:04;5.05;;;1.42;;
13325;SDS011;6732;51.044;3.746;2023-03-23T09:27:30;6.70;;;1.40;;
13325;SDS011;6732;51.044;3.746;2023-03-23T09:29:57;4.90;;;1.80;;
13325;SDS011;6732;51.044;3.746;2023-03-23T09:32:23;2.45;;;1.33;;
13325;SDS011;6732;51.044;3.746;2023-03-23T09:34:50;3.88;;;1.50;;
13325;SDS011;6732;51.044;3.746;2023-03-23T09:37:20;2.45;;;1.30;;
13325;SDS011;6732;51.044;3.746;2023-03-23T09:39:46;2.83;;;1.33;;
13325;SDS011;6732;51.044;3.746;2023-03-23T09:42:20;3.50;;;1.42;;
13325;SDS011;6732;51.044;3.746;2023-03-23T09:45:07;2.67;;;1.25;;
13325;SDS011;6732;51.044;3.746;2023-03-23T09:50:12;3.78;;;1.50;;
13325;SDS011;6732;51.044;3.746;2023-03-23T09:52:43;5.72;;;1.20;;
13325;SDS011;6732;51.044;3.746;2023-03-23T09:55:11;2.40;;;1.20;;
13325;SDS011;6732;51.044;3.746;2023-03-23T09:57:51;2.85;;;1.25;;
13325;SDS011;6732;51.044;3.746;2023-03-23T10:00:21;1.83;;;1.48;;
13325;SDS011;6732;51.044;3.746;2023-03-23T10:02:59;4.50;;;1.83;;
13325;SDS011;6732;51.044;3.746;2023-03-23T10:05:31;4.97;;;1.33;;
13325;SDS011;6732;51.044;3.746;2023-03-23T10:07:58;3.75;;;1.60;;
13325;SDS011;6732;51.044;3.746;2023-03-23T10:10:36;5.18;;;1.85;;
13325;SDS011;6732;51.044;3.746;2023-03-23T10:15:49;6.32;;;2.20;;
13325;SDS011;6732;51.044;3.746;2023-03-23T10:21:00;7.18;;;1.70;;
13325;SDS011;6732;51.044;3.746;2023-03-23T10:23:42;6.90;;;2.08;;
13325;SDS011;6732;51.044;3.746;2023-03-23T10:28:43;6.28;;;1.70;;
13325;SDS011;6732;51.044;3.746;2023-03-23T10:31:11;7.55;;;2.05;;
13325;SDS011;6732;51.044;3.746;2023-03-23T10:33:42;5.97;;;2.00;;
13325;SDS011;6732;51.044;3.746;2023-03-23T10:36:15;5.80;;;1.88;;
13325;SDS011;6732;51.044;3.746;2023-03-23T10:43:36;6.50;;;1.77;;
13325;SDS011;6732;51.044;3.746;2023-03-23T10:46:06;5.18;;;1.88;;
13325;SDS011;6732;51.044;3.746;2023-03-23T10:48:37;6.78;;;2.00;;
13325;SDS011;6732;51.044;3.746;2023-03-23T10:51:05;3.45;;;2.03;;
13325;SDS011;6732;51.044;3.746;2023-03-23T10:53:34;9.70;;;2.20;;
13325;SDS011;6732;51.044;3.746;2023-03-23T10:56:02;5.53;;;2.10;;
13325;SDS011;6732;51.044;3.746;2023-03-23T10:58:30;7.13;;;2.30;;
13325;SDS011;6732;51.044;3.746;2023-03-23T11:00:58;8.05;;;2.22;;
13325;SDS011;6732;51.044;3.746;2023-03-23T11:05:56;7.80;;;2.80;;
13325;SDS011;6732;51.044;3.746;2023-03-23T11:08:30;10.90;;;2.92;;
13325;SDS011;6732;51.044;3.746;2023-03-23T11:11:07;8.00;;;2.40;;
13325;SDS011;6732;51.044;3.746;2023-03-23T11:13:37;8.23;;;2.42;;
13325;SDS011;6732;51.044;3.746;2023-03-23T11:16:04;9.23;;;2.78;;
13325;SDS011;6732;51.044;3.746;2023-03-23T11:18:38;6.28;;;2.30;;
13325;SDS011;6732;51.044;3.746;2023-03-23T11:21:05;7.75;;;2.58;;
13325;SDS011;6732;51.044;3.746;2023-03-23T11:23:35;6.50;;;2.70;;
13325;SDS011;6732;51.044;3.746;2023-03-23T11:28:33;9.82;;;2.90;;
13325;SDS011;6732;51.044;3.746;2023-03-23T11:31:01;7.43;;;2.40;;
13325;SDS011;6732;51.044;3.746;2023-03-23T11:33:29;6.28;;;2.65;;
13325;SDS011;6732;51.044;3.746;2023-03-23T11:35:56;9.50;;;2.35;;
13325;SDS011;6732;51.044;3.746;2023-03-23T11:38:24;9.30;;;2.55;;
13325;SDS011;6732;51.044;3.746;2023-03-23T11:40:53;9.98;;;2.70;;
13325;SDS011;6732;51.044;3.746;2023-03-23T11:43:21;9.50;;;2.35;;
13325;SDS011;6732;51.044;3.746;2023-03-23T11:46:04;8.57;;;1.85;;
13325;SDS011;6732;51.044;3.746;2023-03-23T11:48:44;8.93;;;2.45;;
13325;SDS011;6732;51.044;3.746;2023-03-23T11:51:12;6.55;;;2.15;;
13325;SDS011;6732;51.044;3.746;2023-03-23T11:53:48;6.93;;;1.90;;
13325;SDS011;6732;51.044;3.746;2023-03-23T11:56:23;9.55;;;2.20;;
13325;SDS011;6732;51.044;3.746;2023-03-23T11:58:53;7.65;;;2.42;;
13325;SDS011;6732;51.044;3.746;2023-03-23T12:01:32;8.70;;;2.03;;
13325;SDS011;6732;51.044;3.746;2023-03-23T12:12:55;7.95;;;2.53;;
13325;SDS011;6732;51.044;3.746;2023-03-23T12:17:44;8.02;;;2.20;;
13325;SDS011;6732;51.044;3.746;2023-03-23T12:25:13;12.40;;;2.50;;
13325;SDS011;6732;51.044;3.746;2023-03-23T12:35:48;7.68;;;2.20;;
13325;SDS011;6732;51.044;3.746;2023-03-23T12:46:00;6.85;;;1.92;;
13325;SDS011;6732;51.044;3.746;2023-03-23T12:48:29;9.75;;;2.25;;
13325;SDS011;6732;51.044;3.746;2023-03-23T12:53:33;8.60;;;2.65;;
13325;SDS011;6732;51.044;3.746;2023-03-23T12:59:39;5.00;;;1.90;;
13325;SDS011;6732;51.044;3.746;2023-03-23T13:02:21;3.15;;;1.35;;
13325;SDS011;6732;51.044;3.746;2023-03-23T13:05:00;6.07;;;2.22;;
13325;SDS011;6732;51.044;3.746;2023-03-23T13:07:39;5.45;;;1.60;;
13325;SDS011;6732;51.044;3.746;2023-03-23T13:10:24;3.80;;;1.60;;
13325;SDS011;6732;51.044;3.746;2023-03-23T13:13:14;4.18;;;1.55;;
13325;SDS011;6732;51.044;3.746;2023-03-23T13:15:49;7.25;;;2.25;;
13325;SDS011;6732;51.044;3.746;2023-03-23T13:23:10;7.65;;;2.38;;
13325;SDS011;6732;51.044;3.746;2023-03-23T13:28:18;13.95;;;3.35;;
13325;SDS011;6732;51.044;3.746;2023-03-23T13:30:55;9.85;;;2.75;;
13325;SDS011;6732;51.044;3.746;2023-03-23T13:33:45;9.13;;;2.42;;
13325;SDS011;6732;51.044;3.746;2023-03-23T13:36:14;7.32;;;2.33;;
13325;SDS011;6732;51.044;3.746;2023-03-23T13:38:45;6.22;;;2.30;;
13325;SDS011;6732;51.044;3.746;2023-03-23T13:41:13;8.27;;;2.40;;
13325;SDS011;6732;51.044;3.746;2023-03-23T13:43:43;11.80;;;2.80;;
13325;SDS011;6732;51.044;3.746;2023-03-23T13:48:42;6.60;;;2.15;;
13325;SDS011;6732;51.044;3.746;2023-03-23T13:54:05;9.10;;;2.25;;
13325;SDS011;6732;51.044;3.746;2023-03-23T13:56:40;11.05;;;2.38;;
13325;SDS011;6732;51.044;3.746;2023-03-23T13:59:14;7.28;;;2.33;;
13325;SDS011;6732;51.044;3.746;2023-03-23T14:01:57;7.30;;;2.20;;
13325;SDS011;6732;51.044;3.746;2023-03-23T14:04:57;8.02;;;2.35;;
13325;SDS011;6732;51.044;3.746;2023-03-23T14:10:25;6.30;;;2.58;;
13325;SDS011;6732;51.044;3.746;2023-03-23T14:13:02;6.90;;;2.47;;
13325;SDS011;6732;51.044;3.746;2023-03-23T14:15:30;8.57;;;2.30;;
13325;SDS011;6732;51.044;3.746;2023-03-23T14:18:05;6.45;;;2.83;;
13325;SDS011;6732;51.044;3.746;2023-03-23T14:20:33;8.45;;;2.72;;
13325;SDS011;6732;51.044;3.746;2023-03-23T14:23:01;6.30;;;2.30;;
13325;SDS011;6732;51.044;3.746;2023-03-23T14:25:28;5.57;;;2.05;;
13325;SDS011;6732;51.044;3.746;2023-03-23T14:27:56;7.82;;;2.40;;
13325;SDS011;6732;51.044;3.746;2023-03-23T14:30:23;9.65;;;2.70;;
13325;SDS011;6732;51.044;3.746;2023-03-23T14:33:03;5.28;;;2.05;;
13325;SDS011;6732;51.044;3.746;2023-03-23T14:35:32;7.25;;;2.33;;
13325;SDS011;6732;51.044;3.746;2023-03-23T14:38:00;6.75;;;2.40;;
13325;SDS011;6732;51.044;3.746;2023-03-23T14:40:28;9.30;;;2.72;;
13325;SDS011;6732;51.044;3.746;2023-03-23T14:42:55;10.60;;;2.40;;
13325;SDS011;6732;51.044;3.746;2023-03-23T14:45:22;7.53;;;2.10;;
13325;SDS011;6732;51.044;3.746;2023-03-23T14:47:51;6.93;;;2.13;;
13325;SDS011;6732;51.044;3.746;2023-03-23T14:52:57;8.63;;;2.67;;
13325;SDS011;6732;51.044;3.746;2023-03-23T14:55:34;7.00;;;2.28;;
13325;SDS011;6732;51.044;3.746;2023-03-23T14:58:07;8.65;;;2.10;;
13325;SDS011;6732;51.044;3.746;2023-03-23T15:00:39;8.60;;;2.42;;
13325;SDS011;6732;51.044;3.746;2023-03-23T15:03:12;7.57;;;2.38;;
13325;SDS011;6732;51.044;3.746;2023-03-23T15:05:43;7.88;;;2.42;;
13325;SDS011;6732;51.044;3.746;2023-03-23T15:08:24;7.70;;;2.53;;
13325;SDS011;6732;51.044;3.746;2023-03-23T15:13:37;6.68;;;2.30;;
13325;SDS011;6732;51.044;3.746;2023-03-23T15:16:12;13.75;;;2.42;;
13325;SDS011;6732;51.044;3.746;2023-03-23T15:18:53;11.15;;;2.97;;
13325;SDS011;6732;51.044;3.746;2023-03-23T15:21:34;7.75;;;2.35;;
13325;SDS011;6732;51.044;3.746;2023-03-23T15:24:44;7.40;;;2.42;;
13325;SDS011;6732;51.044;3.746;2023-03-23T15:29:57;8.48;;;2.60;;
13325;SDS011;6732;51.044;3.746;2023-03-23T15:32:30;11.25;;;2.67;;
13325;SDS011;6732;51.044;3.746;2023-03-23T15:35:03;7.85;;;2.65;;
13325;SDS011;6732;51.044;3.746;2023-03-23T15:37:38;8.48;;;2.70;;
13325;SDS011;6732;51.044;3.746;2023-03-23T15:40:22;7.93;;;2.88;;
13325;SDS011;6732;51.044;3.746;2023-03-23T15:42:50;8.80;;;2.58;;
13325;SDS011;6732;51.044;3.746;2023-03-23T15:45:31;8.27;;;2.67;;
13325;SDS011;6732;51.044;3.746;2023-03-23T15:48:18;8.68;;;2.78;;
13325;SDS011;6732;51.044;3.746;2023-03-23T15:50:43;12.10;;;3.13;;
13325;SDS011;6732;51.044;3.746;2023-03-23T15:53:19;10.88;;;2.80;;
13325;SDS011;6732;51.044;3.746;2023-03-23T15:55:51;7.40;;;2.55;;
13325;SDS011;6732;51.044;3.746;2023-03-23T15:58:18;10.13;;;2.80;;
13325;SDS011;6732;51.044;3.746;2023-03-23T16:00:44;9.73;;;2.88;;
13325;SDS011;6732;51.044;3.746;2023-03-23T16:03:13;6.50;;;2.50;;
13325;SDS011;6732;51.044;3.746;2023-03-23T16:05:45;7.50;;;2.67;;
13325;SDS011;6732;51.044;3.746;2023-03-23T16:08:11;8.90;;;2.97;;
13325;SDS011;6732;51.044;3.746;2023-03-23T16:10:37;8.85;;;2.80;;
13325;SDS011;6732;51.044;3.746;2023-03-23T16:13:03;10.73;;;2.80;;
13325;SDS011;6732;51.044;3.746;2023-03-23T16:15:29;8.77;;;2.78;;
13325;SDS011;6732;51.044;3.746;2023-03-23T16:17:56;12.13;;;2.85;;
13325;SDS011;6732;51.044;3.746;2023-03-23T16:20:22;8.45;;;2.70;;
13325;SDS011;6732;51.044;3.746;2023-03-23T16:22:49;9.63;;;2.63;;
13325;SDS011;6732;51.044;3.746;2023-03-23T16:25:16;10.00;;;2.92;;
13325;SDS011;6732;51.044;3.746;2023-03-23T16:27:43;8.73;;;2.65;;
13325;SDS011;6732;51.044;3.746;2023-03-23T16:30:15;8.52;;;2.45;;
13325;SDS011;6732;51.044;3.746;2023-03-23T16:32:42;11.55;;;2.60;;
13325;SDS011;6732;51.044;3.746;2023-03-23T16:35:09;8.02;;;2.15;;
13325;SDS011;6732;51.044;3.746;2023-03-23T16:37:35;6.90;;;2.20;;
13325;SDS011;6732;51.044;3.746;2023-03-23T16:40:02;5.80;;;2.00;;
13325;SDS011;6732;51.044;3.746;2023-03-23T16:42:30;7.47;;;2.60;;
13325;SDS011;6732;51.044;3.746;2023-03-23T16:44:55;7.75;;;2.00;;
13325;SDS011;6732;51.044;3.746;2023-03-23T16:47:21;9.20;;;2.20;;
13325;SDS011;6732;51.044;3.746;2023-03-23T16:49:52;6.35;;;1.95;;
13325;SDS011;6732;51.044;3.746;2023-03-23T16:52:18;11.77;;;2.25;;
13325;SDS011;6732;51.044;3.746;2023-03-23T16:54:45;5.47;;;2.10;;
13325;SDS011;6732;51.044;3.746;2023-03-23T16:57:11;7.70;;;2.33;;
13325;SDS011;6732;51.044;3.746;2023-03-23T16:59:37;5.78;;;2.30;;